ADDS METAR Data INFO
IDs: Format: Raw Decoded Include TAF

Data at: 2316 UTC 15 Jul 2018

K4A9 152255Z AUTO 05005KT 10SM CLR 24/23 A3002 RMK AO2 P0003
K4A9 152235Z AUTO 05007KT 10SM CLR 24/23 A3002 RMK AO2 P0002
K4A9 152215Z AUTO 04005KT 10SM CLR 23/22 A3003 RMK AO2 P0001
K4A9 152155Z AUTO 05005KT 10SM SCT090 23/22 A3003 RMK AO2 P0004
K4A9 152135Z AUTO 03004KT 7SM -RA SCT025 SCT033 OVC090 23/22 A3004 RMK AO2 P0002
K4A9 152115Z AUTO 06003KT 7SM -RA SCT014 BKN030 OVC070 23/21 A3005 RMK AO2 P0001
K4A9 152055Z AUTO 04003KT 10SM -RA SCT037 BKN070 OVC090 22/21 A3004 RMK AO2 P0003
K4A9 152035Z AUTO 02003KT 5SM RA SCT015 BKN055 OVC070 22/21 A3005 RMK AO2 P0002
K4A9 152015Z AUTO 05010G17KT 2 1/2SM +RA SCT014 BKN025 OVC049 23/21 A3005 RMK AO2 P0001
K4A9 151955Z AUTO 04015G18KT 10SM SCT029 BKN037 OVC100 25/21 A3004 RMK AO2
K4A9 151935Z AUTO 06004KT 10SM SCT036 BKN060 OVC100 31/21 A3003 RMK AO2
K4A9 151915Z AUTO 25003KT 10SM SCT033 BKN039 BKN050 30/21 A3003 RMK AO2
K4A9 151855Z AUTO 00000KT 10SM SCT029 BKN035 BKN043 30/21 A3004 RMK AO2
K4A9 151835Z AUTO 25005KT 10SM SCT029 SCT035 SCT065 30/22 A3005 RMK AO2
K4A9 151815Z AUTO 00000KT 10SM SCT026 SCT037 30/22 A3007 RMK AO2
K4A9 151755Z AUTO 24004KT 10SM SCT026 BKN033 29/22 A3008 RMK AO2
K4A9 151735Z AUTO 25003KT 10SM SCT023 SCT028 SCT048 28/22 A3008 RMK AO2
K4A9 151715Z AUTO 00000KT 10SM SCT030 SCT044 SCT100 28/21 A3009 RMK AO2
K4A9 151655Z AUTO 23003KT 10SM SCT023 BKN030 BKN044 28/22 A3009 RMK AO2
K4A9 151635Z AUTO 27003KT 10SM OVC025 28/22 A3009 RMK AO2
K4A9 151615Z AUTO 17003KT 10SM BKN025 28/22 A3010 RMK AO2
K4A9 151555Z AUTO 00000KT 10SM SCT018 BKN024 27/22 A3010 RMK AO2
K4A9 151535Z AUTO 00000KT 10SM OVC018 27/22 A3010 RMK AO2
K4A9 151515Z AUTO 00000KT 10SM OVC018 26/22 A3010 RMK AO2
K4A9 151455Z AUTO 00000KT 10SM OVC018 26/22 A3010 RMK AO2
K4A9 151435Z AUTO 24003KT 10SM OVC018 26/22 A3010 RMK AO2
K4A9 151415Z AUTO 00000KT 10SM OVC016 26/22 A3010 RMK AO2
K4A9 151355Z AUTO 00000KT 10SM OVC014 26/22 A3010 RMK AO2
K4A9 151335Z AUTO 00000KT 10SM OVC012 26/22 A3010 RMK AO2
K4A9 151315Z AUTO 00000KT 10SM BKN012 25/22 A3010 RMK AO2
K4A9 151255Z AUTO 00000KT 10SM SCT012 25/22 A3011 RMK AO2
K4A9 151235Z AUTO 12003KT 10SM CLR 24/22 A3010 RMK AO2
K4A9 151215Z AUTO 11003KT 10SM CLR 24/22 A3011 RMK AO2
K4A9 151155Z AUTO 00000KT 10SM CLR 23/22 A3010 RMK AO2
K4A9 151135Z AUTO 00000KT 10SM CLR 22/21 A3009 RMK AO2
K4A9 151115Z AUTO 00000KT 7SM CLR 22/20 A3009 RMK AO2
K4A9 151055Z AUTO 00000KT 7SM SCT010 SCT080 22/21 A3009 RMK AO2
K4A9 151035Z AUTO 00000KT 10SM SCT012 22/21 A3009 RMK AO2
K4A9 151015Z AUTO 00000KT 7SM CLR 22/21 A3008 RMK AO2
K4A9 150955Z AUTO 00000KT 10SM CLR 22/21 A3008 RMK AO2
K4A9 150935Z AUTO 00000KT 10SM CLR 22/20 A3008 RMK AO2
K4A9 150915Z AUTO 00000KT 10SM CLR 22/21 A3007 RMK AO2
K4A9 150855Z AUTO 00000KT 10SM CLR 22/21 A3007 RMK AO2
K4A9 150835Z AUTO 00000KT 10SM CLR 22/21 A3007 RMK AO2
K4A9 150815Z AUTO 00000KT 10SM CLR 22/21 A3007 RMK AO2
K4A9 150755Z AUTO 00000KT 10SM CLR 22/21 A3007 RMK AO2
K4A9 150735Z AUTO 00000KT 10SM CLR 23/21 A3007 RMK AO2
K4A9 150715Z AUTO 00000KT 10SM CLR 23/22 A3007 RMK AO2
K4A9 150655Z AUTO 20003KT 10SM CLR 23/22 A3007 RMK AO2
K4A9 150635Z AUTO 27003KT 10SM CLR 24/21 A3008 RMK AO2
K4A9 150615Z AUTO 15004KT 10SM CLR 24/21 A3008 RMK AO2
K4A9 150555Z AUTO 00000KT 10SM CLR 24/21 A3008 RMK AO2
K4A9 150535Z AUTO 12003KT 10SM CLR 24/21 A3008 RMK AO2
K4A9 150515Z AUTO 00000KT 10SM CLR 24/22 A3009 RMK AO2
K4A9 150455Z AUTO 13003KT 10SM CLR 24/22 A3009 RMK AO2
K4A9 150435Z AUTO 00000KT 10SM CLR 25/22 A3010 RMK AO2
K4A9 150415Z AUTO 27003KT 10SM CLR 25/22 A3009 RMK AO2
K4A9 150355Z AUTO 00000KT 10SM CLR 25/22 A3009 RMK AO2
K4A9 150335Z AUTO 32003KT 10SM CLR 25/22 A3009 RMK AO2
K4A9 150315Z AUTO 00000KT 10SM CLR 25/22 A3009 RMK AO2
K4A9 150255Z AUTO 03004KT 10SM CLR 25/22 A3009 RMK AO2
K4A9 150235Z AUTO 00000KT 10SM CLR 25/22 A3009 RMK AO2
K4A9 150215Z AUTO 00000KT 10SM CLR 25/22 A3009 RMK AO2
K4A9 150155Z AUTO 00000KT 10SM CLR 26/22 A3009 RMK AO2
K4A9 150135Z AUTO 00000KT 10SM CLR 26/22 A3009 RMK AO2
K4A9 150115Z AUTO 11003KT 10SM CLR 25/22 A3009 RMK AO2
K4A9 150055Z AUTO 00000KT 10SM CLR 26/23 A3008 RMK AO2
K4A9 150035Z AUTO 00000KT 10SM CLR 27/22 A3007 RMK AO2
K4A9 150015Z AUTO 10004KT 10SM CLR 27/22 A3007 RMK AO2
K4A9 142355Z AUTO 00000KT 10SM CLR 28/20 A3006 RMK AO2
K4A9 142335Z AUTO 10003KT 10SM CLR 28/21 A3004 RMK AO2
K4A9 142315Z AUTO 00000KT 10SM CLR 28/21 A3005 RMK AO2
K4A9 142255Z AUTO 00000KT 10SM CLR 28/21 A3006 RMK AO2
K4A9 142235Z AUTO 00000KT 10SM CLR 28/21 A3005 RMK AO2
K4A9 142215Z AUTO 00000KT 10SM CLR 27/21 A3005 RMK AO2
K4A9 142155Z AUTO 00000KT 10SM -DZ CLR 26/22 A3006 RMK AO2
K4A9 142135Z AUTO 00000KT 10SM -RA SCT037 SCT044 SCT060 26/21 A3007 RMK AO2
K4A9 142115Z AUTO 00000KT 10SM SCT060 SCT070 SCT090 26/21 A3008 RMK AO2
K4A9 142055Z AUTO 10009KT 10SM SCT049 SCT065 BKN080 27/21 A3009 RMK AO2
K4A9 142035Z AUTO 06010G16KT 10SM SCT045 SCT065 BKN080 28/21 A3008 RMK AO2
K4A9 142015Z AUTO 04004KT 10SM CLR 31/19 A3007 RMK AO2
K4A9 141955Z AUTO 00000KT 10SM CLR 31/18 A3008 RMK AO2
K4A9 141935Z AUTO 00000KT 10SM BKN037 BKN044 31/20 A3007 RMK AO2
K4A9 141915Z AUTO 00000KT 10SM SCT037 30/20 A3008 RMK AO2
K4A9 141855Z AUTO 00000KT 10SM CLR 30/20 A3009 RMK AO2
K4A9 141835Z AUTO 00000KT 10SM CLR 30/21 A3010 RMK AO2
K4A9 141815Z AUTO 00000KT 10SM SCT034 SCT055 30/21 A3010 RMK AO2
K4A9 141755Z AUTO 23005KT 10SM SCT055 30/22 A3012 RMK AO2
K4A9 141735Z AUTO 22005KT 10SM SCT030 SCT055 30/21 A3013 RMK AO2
K4A9 141715Z AUTO 00000KT 10SM BKN028 BKN035 29/22 A3013 RMK AO2
K4A9 141655Z AUTO 15003KT 10SM OVC028 28/21 A3014 RMK AO2
K4A9 141635Z AUTO 15004KT 10SM SCT026 BKN030 OVC060 28/21 A3015 RMK AO2
K4A9 141615Z AUTO 17004KT 10SM SCT023 BKN028 OVC050 28/22 A3015 RMK AO2
K4A9 141555Z AUTO 11004KT 10SM BKN025 BKN031 OVC048 28/22 A3015 RMK AO2
K4A9 141535Z AUTO 14005KT 10SM BKN023 OVC029 27/22 A3015 RMK AO2
K4A9 141515Z AUTO 14006KT 10SM BKN021 OVC026 27/22 A3015 RMK AO2
K4A9 141455Z AUTO 11004KT 10SM BKN021 BKN040 27/22 A3015 RMK AO2
K4A9 141435Z AUTO 12004KT 10SM SCT021 SCT040 27/22 A3015 RMK AO2
K4A9 141415Z AUTO 12004KT 10SM SCT016 27/22 A3015 RMK AO2
K4A9 141355Z AUTO 12005KT 10SM SCT016 SCT021 26/22 A3014 RMK AO2
K4A9 141335Z AUTO 17004KT 10SM BKN014 BKN021 26/22 A3014 RMK AO2
K4A9 141315Z AUTO 12003KT 10SM BKN014 BKN019 26/23 A3014 RMK AO2
K4A9 141255Z AUTO 00000KT 10SM SCT012 25/23 A3014 RMK AO2
K4A9 141235Z AUTO 12003KT 10SM SCT038 25/23 A3013 RMK AO2
K4A9 141215Z AUTO 10003KT 10SM SCT011 BKN038 25/22 A3013 RMK AO2
K4A9 141155Z AUTO 00000KT 10SM SCT011 SCT030 BKN038 25/22 A3013 RMK AO2
K4A9 141135Z AUTO 00000KT 10SM SCT011 SCT021 BKN038 24/22 A3013 RMK AO2